Time;durP1;ratioP1;P1;durP2;ratioP2;P2;SDS_P1;SDS_P2;PMS_P1;PMS_P2;Temp;Humidity;BMP_temperature;BMP_pressure;BME280_temperature;BME280_humidity;BME280_pressure;Samples;Min_cycle;Max_cycle;Signal;HPM_P1;HPM_P2
2022/04/21 00:00:17;;;;;;;4.13;2.58;;;;;;;-140.79;100.00;63287.88;4992740;28;20030;-54
2022/04/21 00:02:43;;;;;;;3.75;2.30;;;;;;;-140.79;100.00;63287.88;4992934;28;20058;-54
2022/04/21 00:05:09;;;;;;;3.25;2.55;;;;;;;-140.79;100.00;63287.88;4998899;28;20439;-55
2022/04/21 00:07:35;;;;;;;4.47;3.00;;;;;;;-140.79;100.00;63287.88;5004471;28;20092;-54
2022/04/21 00:10:00;;;;;;;3.72;2.60;;;;;;;-140.79;100.00;63287.88;5004670;28;20034;-54
2022/04/21 00:12:26;;;;;;;3.50;2.30;;;;;;;-140.79;100.00;63287.88;5004716;28;20072;-54
2022/04/21 00:14:51;;;;;;;3.30;2.28;;;;;;;-140.79;100.00;63287.88;5004580;28;20383;-53
2022/04/21 00:17:17;;;;;;;3.35;2.40;;;;;;;-140.79;100.00;63287.88;5004614;28;20497;-54
2022/04/21 00:19:42;;;;;;;3.88;2.42;;;;;;;-140.79;100.00;63287.88;5004670;28;20409;-54
2022/04/21 00:24:52;;;;;;;3.75;2.67;;;;;;;-140.79;100.00;63287.88;5004895;28;20448;-55
2022/04/21 00:27:17;;;;;;;3.30;2.20;;;;;;;-140.79;100.00;63287.88;5003951;28;20026;-54
2022/04/21 00:29:44;;;;;;;3.25;2.40;;;;;;;-140.79;100.00;63287.88;5004633;28;20489;-54
2022/04/21 00:32:09;;;;;;;3.65;2.60;;;;;;;-140.79;100.00;63287.88;5004570;28;20034;-53
2022/04/21 00:34:35;;;;;;;4.18;2.70;;;;;;;-140.79;100.00;63287.88;5004635;28;20117;-54
2022/04/21 00:37:00;;;;;;;2.60;2.05;;;;;;;-140.79;100.00;63287.88;5004458;28;20060;-54
2022/04/21 00:39:26;;;;;;;3.10;2.38;;;;;;;-140.79;100.00;63287.88;5003224;28;20034;-54
2022/04/21 00:41:58;;;;;;;3.70;2.58;;;;;;;-140.79;100.00;63287.88;4985232;28;20437;-53
2022/04/21 00:44:24;;;;;;;3.15;2.30;;;;;;;-140.79;100.00;63287.88;4987516;28;20039;-52
2022/04/21 00:46:50;;;;;;;3.42;2.55;;;;;;;-140.79;100.00;63287.88;4987792;28;20045;-53
2022/04/21 00:49:15;;;;;;;3.00;2.58;;;;;;;-140.79;100.00;63287.88;4988596;28;20657;-54
2022/04/21 00:51:41;;;;;;;3.72;2.70;;;;;;;-140.79;100.00;63287.88;5003357;28;20026;-52
2022/04/21 00:54:06;;;;;;;3.10;2.58;;;;;;;-140.79;100.00;63287.88;5003417;28;20488;-53
2022/04/21 00:56:32;;;;;;;3.55;2.70;;;;;;;-140.79;100.00;63287.88;4985199;28;20038;-54
2022/04/21 00:58:57;;;;;;;3.30;2.50;;;;;;;-140.79;100.00;63287.88;4999782;28;20034;-54
2022/04/21 01:04:07;;;;;;;3.60;2.75;;;;;;;-140.79;100.00;63287.88;5007857;28;20524;-53
2022/04/21 01:06:32;;;;;;;3.20;2.40;;;;;;;-140.79;100.00;63287.88;5006943;28;20034;-54
2022/04/21 01:08:57;;;;;;;5.55;2.47;;;;;;;-140.79;100.00;63287.88;5006373;28;20033;-54
2022/04/21 01:11:23;;;;;;;3.53;2.60;;;;;;;-140.79;100.00;63287.88;5007242;28;20022;-54
2022/04/21 01:13:48;;;;;;;3.30;2.28;;;;;;;-140.79;100.00;63287.88;5006374;28;20025;-53
2022/04/21 01:16:14;;;;;;;3.05;2.35;;;;;;;-140.79;100.00;63287.88;5005346;28;20033;-55
2022/04/21 01:18:41;;;;;;;3.50;2.30;;;;;;;-140.79;100.00;63287.88;5007602;28;20513;-54
2022/04/21 01:21:06;;;;;;;3.05;2.15;;;;;;;-140.79;100.00;63287.88;5007228;28;20121;-53
2022/04/21 01:23:32;;;;;;;3.53;2.65;;;;;;;-140.79;100.00;63287.88;5022236;28;20113;-53
2022/04/21 01:25:57;;;;;;;3.10;2.70;;;;;;;-140.79;100.00;63287.88;5006526;28;20025;-54
2022/04/21 01:28:25;;;;;;;3.78;2.78;;;;;;;-140.79;100.00;63287.88;5005999;28;20037;-54
2022/04/21 01:30:54;;;;;;;3.97;2.67;;;;;;;-140.79;100.00;63287.88;5005724;28;20422;-54
2022/04/21 01:33:19;;;;;;;3.20;2.30;;;;;;;-140.79;100.00;63287.88;5007358;28;20026;-54
2022/04/21 01:35:45;;;;;;;2.90;2.45;;;;;;;-140.79;100.00;63287.88;5006986;28;20040;-54
2022/04/21 01:41:09;;;;;;;3.50;2.35;;;;;;;-140.79;100.00;63287.88;4994346;28;20469;-54
2022/04/21 01:43:38;;;;;;;3.70;2.65;;;;;;;-140.79;100.00;63287.88;4987395;28;20509;-54
2022/04/21 01:46:03;;;;;;;3.42;2.72;;;;;;;-140.79;100.00;63287.88;4986720;28;20037;-54
2022/04/21 01:48:29;;;;;;;3.30;2.50;;;;;;;-140.79;100.00;63287.88;4987282;28;20113;-53
2022/04/21 01:50:54;;;;;;;2.58;2.20;;;;;;;-140.79;100.00;63287.88;4987323;28;20049;-54
2022/04/21 01:53:19;;;;;;;3.35;2.55;;;;;;;-140.79;100.00;63287.88;4987456;28;20178;-53
2022/04/21 01:55:46;;;;;;;3.75;2.80;;;;;;;-140.79;100.00;63287.88;5001556;28;20525;-56
2022/04/21 01:58:12;;;;;;;3.17;2.58;;;;;;;-140.79;100.00;63287.88;4986960;28;20688;-54
2022/04/21 02:00:37;;;;;;;2.78;2.35;;;;;;;-140.79;100.00;63287.88;4997018;28;20161;-55
2022/04/21 02:03:03;;;;;;;2.85;2.53;;;;;;;-140.79;100.00;63287.88;5005304;28;20433;-53
2022/04/21 02:05:28;;;;;;;3.63;2.78;;;;;;;-140.79;100.00;63287.88;5006549;28;20049;-53
2022/04/21 02:07:54;;;;;;;3.08;2.70;;;;;;;-140.79;100.00;63287.88;5006373;28;20030;-56
2022/04/21 02:10:21;;;;;;;2.85;2.40;;;;;;;-140.79;100.00;63287.88;5006271;28;20120;-55
2022/04/21 02:12:47;;;;;;;2.85;2.30;;;;;;;-140.79;100.00;63287.88;5006417;28;20053;-55
2022/04/21 02:15:12;;;;;;;3.50;2.35;;;;;;;-140.79;100.00;63287.88;5005067;28;20052;-55
2022/04/21 02:17:39;;;;;;;2.97;2.25;;;;;;;-140.79;100.00;63287.88;5006204;28;20437;-55
2022/04/21 02:20:06;;;;;;;3.00;2.45;;;;;;;-140.79;100.00;63287.88;5006281;28;20037;-56
2022/04/21 02:22:32;;;;;;;3.05;2.58;;;;;;;-140.79;100.00;63287.88;4996439;28;20026;-55
2022/04/21 02:24:57;;;;;;;3.08;2.78;;;;;;;-140.79;100.00;63287.88;4986661;28;20038;-54
2022/04/21 02:27:23;;;;;;;3.50;2.58;;;;;;;-140.79;100.00;63287.88;4986297;28;20108;-55
2022/04/21 02:29:48;;;;;;;3.40;2.30;;;;;;;-140.79;100.00;63287.88;5000887;28;20085;-54
2022/04/21 02:32:15;;;;;;;3.00;2.33;;;;;;;-140.79;100.00;63287.88;4986282;28;20038;-55
2022/04/21 02:34:41;;;;;;;3.65;3.03;;;;;;;-140.79;100.00;63287.88;4986201;28;20031;-56
2022/04/21 02:37:07;;;;;;;2.70;2.30;;;;;;;-140.79;100.00;63287.88;4986022;28;20053;-56
2022/04/21 02:39:32;;;;;;;3.67;2.97;;;;;;;-140.79;100.00;63287.88;4987517;28;20081;-56
2022/04/21 02:41:58;;;;;;;3.00;2.67;;;;;;;-140.79;100.00;63287.88;5001018;28;20091;-55
2022/04/21 02:44:24;;;;;;;3.33;2.60;;;;;;;-140.79;100.00;63287.88;4986237;28;20037;-55
2022/04/21 02:46:49;;;;;;;3.15;2.40;;;;;;;-140.79;100.00;63287.88;4985849;28;20034;-55
2022/04/21 02:49:14;;;;;;;3.20;2.40;;;;;;;-140.79;100.00;63287.88;4986252;28;20521;-56
2022/04/21 02:51:40;;;;;;;3.42;2.70;;;;;;;-140.79;100.00;63287.88;4986397;28;20022;-53
2022/04/21 02:59:33;;;;;;;3.72;2.70;;;;;;;-140.79;100.00;63287.88;4987936;28;20101;-55
2022/04/21 03:01:59;;;;;;;3.55;2.50;;;;;;;-140.79;100.00;63287.88;4985477;28;20023;-54
2022/04/21 03:04:25;;;;;;;3.63;2.67;;;;;;;-140.79;100.00;63287.88;4985659;28;20085;-53
2022/04/21 03:06:50;;;;;;;3.08;2.28;;;;;;;-140.79;100.00;63287.88;4994672;28;20497;-54
2022/04/21 03:09:16;;;;;;;2.92;2.42;;;;;;;-140.79;100.00;63287.88;4989779;28;20026;-55
2022/04/21 03:11:42;;;;;;;3.10;2.80;;;;;;;-140.79;100.00;63287.88;4985168;28;20030;-51
2022/04/21 03:14:08;;;;;;;2.53;2.28;;;;;;;-140.79;100.00;63287.88;4985835;28;20039;-55
2022/04/21 03:16:33;;;;;;;3.08;2.25;;;;;;;-140.79;100.00;63287.88;4985643;28;20034;-55
2022/04/21 03:18:59;;;;;;;2.88;2.08;;;;;;;-140.79;100.00;63287.88;5013182;28;20083;-55
2022/04/21 03:24:20;;;;;;;3.10;2.50;;;;;;;-140.79;100.00;63287.88;5024149;28;20091;-53
2022/04/21 03:26:49;;;;;;;2.92;2.33;;;;;;;-140.79;100.00;63287.88;5024292;28;20029;-55
2022/04/21 03:29:14;;;;;;;2.88;2.33;;;;;;;-140.79;100.00;63287.88;5024038;28;20065;-54
2022/04/21 03:31:43;;;;;;;3.05;2.58;;;;;;;-140.79;100.00;63287.88;5023619;28;20077;-54
2022/04/21 03:34:13;;;;;;;2.67;2.40;;;;;;;-140.79;100.00;63287.88;5023976;28;20065;-54
2022/04/21 03:36:40;;;;;;;3.17;2.50;;;;;;;-140.79;100.00;63287.88;5017410;28;20126;-54
2022/04/21 03:39:05;;;;;;;2.92;2.50;;;;;;;-140.79;100.00;63287.88;5016143;28;20237;-54
2022/04/21 03:41:31;;;;;;;2.53;2.30;;;;;;;-140.79;100.00;63287.88;5019041;28;20017;-54
2022/04/21 03:43:56;;;;;;;2.78;2.47;;;;;;;-140.79;100.00;63287.88;5015435;28;20018;-53
2022/04/21 03:46:22;;;;;;;3.03;2.50;;;;;;;-140.79;100.00;63287.88;5020507;28;20026;-54
2022/04/21 03:48:47;;;;;;;2.60;2.20;;;;;;;-140.79;100.00;63287.88;5021030;28;20412;-54
2022/04/21 03:51:13;;;;;;;2.30;2.00;;;;;;;-140.79;100.00;63287.88;5023157;28;20467;-54
2022/04/21 03:53:38;;;;;;;2.70;2.33;;;;;;;-140.79;100.00;63287.88;5023220;28;20489;-54
2022/04/21 03:56:04;;;;;;;3.08;2.45;;;;;;;-140.79;100.00;63287.88;5022097;28;20026;-54
2022/04/21 03:58:29;;;;;;;2.80;2.40;;;;;;;-140.79;100.00;63287.88;5023428;28;20056;-54
2022/04/21 04:00:55;;;;;;;2.78;2.35;;;;;;;-140.79;100.00;63287.88;5020857;28;20029;-54
2022/04/21 04:03:20;;;;;;;2.90;2.60;;;;;;;-140.79;100.00;63287.88;5023513;28;20037;-54
2022/04/21 04:05:45;;;;;;;2.90;2.30;;;;;;;-140.79;100.00;63287.88;5024004;28;20037;-55
2022/04/21 04:10:55;;;;;;;3.17;2.40;;;;;;;-140.79;100.00;63287.88;4984973;28;20200;-55
2022/04/21 04:13:23;;;;;;;2.65;2.35;;;;;;;-140.79;100.00;63287.88;4999767;28;20484;-56
2022/04/21 04:15:51;;;;;;;2.85;2.53;;;;;;;-140.79;100.00;63287.88;5018626;28;20034;-55
2022/04/21 04:18:17;;;;;;;3.00;2.40;;;;;;;-140.79;100.00;63287.88;5022731;28;20034;-55
2022/04/21 04:20:43;;;;;;;2.88;2.42;;;;;;;-140.79;100.00;63287.88;5024069;28;20101;-55
2022/04/21 04:23:08;;;;;;;2.97;2.10;;;;;;;-140.79;100.00;63287.88;5025833;28;20483;-53
2022/04/21 04:25:35;;;;;;;2.75;2.40;;;;;;;-140.79;100.00;63287.88;5023733;28;20265;-54
2022/04/21 04:28:00;;;;;;;2.88;2.40;;;;;;;-140.79;100.00;63287.88;5025691;28;20060;-54
2022/04/21 04:30:26;;;;;;;2.60;2.28;;;;;;;-140.79;100.00;63287.88;5021256;28;20061;-54
2022/04/21 04:32:51;;;;;;;2.90;2.60;;;;;;;-140.79;100.00;63287.88;5022685;28;20025;-54
2022/04/21 04:35:17;;;;;;;3.20;2.50;;;;;;;-140.79;100.00;63287.88;5025518;28;20030;-54
2022/04/21 04:37:42;;;;;;;2.88;2.50;;;;;;;-140.79;100.00;63287.88;5023337;28;20031;-54
2022/04/21 04:40:08;;;;;;;3.00;2.45;;;;;;;-140.79;100.00;63287.88;5025737;28;20037;-53
2022/04/21 04:42:34;;;;;;;2.80;2.30;;;;;;;-140.79;100.00;63287.88;5022695;28;20041;-54
2022/04/21 04:47:43;;;;;;;2.85;2.50;;;;;;;-140.79;100.00;63287.88;5022455;28;20408;-54
2022/04/21 04:50:09;;;;;;;3.17;2.60;;;;;;;-140.79;100.00;63287.88;5014111;28;20027;-53
2022/04/21 04:52:34;;;;;;;2.72;2.30;;;;;;;-140.79;100.00;63287.88;4988006;28;20130;-54
2022/04/21 04:55:00;;;;;;;2.95;2.55;;;;;;;-140.79;100.00;63287.88;4988080;28;20402;-53
2022/04/21 04:57:25;;;;;;;3.30;2.65;;;;;;;-140.79;100.00;63287.88;4992707;28;20034;-54
2022/04/21 04:59:51;;;;;;;2.90;2.50;;;;;;;-140.79;100.00;63287.88;5002999;28;20414;-54
2022/04/21 05:02:20;;;;;;;3.70;2.60;;;;;;;-140.79;100.00;63287.88;4990035;28;20093;-54
2022/04/21 05:04:46;;;;;;;3.25;2.60;;;;;;;-140.79;100.00;63287.88;5019471;28;20068;-54
2022/04/21 05:07:11;;;;;;;3.28;2.35;;;;;;;-140.79;100.00;63287.88;5007750;28;20518;-54
2022/04/21 05:09:37;;;;;;;4.25;2.30;;;;;;;-140.79;100.00;63287.88;5005721;28;20033;-54
2022/04/21 05:12:02;;;;;;;3.30;2.50;;;;;;;-140.79;100.00;63287.88;5010789;28;20026;-54
2022/04/21 05:14:29;;;;;;;3.13;2.50;;;;;;;-140.79;100.00;63287.88;5009231;28;20065;-54
2022/04/21 05:16:54;;;;;;;2.40;2.20;;;;;;;-140.79;100.00;63287.88;4987762;28;20079;-54
2022/04/21 05:19:20;;;;;;;2.90;2.53;;;;;;;-140.79;100.00;63287.88;5002816;28;20520;-54
2022/04/21 05:21:47;;;;;;;3.00;2.38;;;;;;;-140.79;100.00;63287.88;5015490;28;20514;-54
2022/04/21 05:24:13;;;;;;;2.83;2.20;;;;;;;-140.79;100.00;63287.88;5019109;28;20100;-54
2022/04/21 05:26:38;;;;;;;2.65;2.38;;;;;;;-140.79;100.00;63287.88;5005747;28;20662;-54
2022/04/21 05:30:55;;;;;;;3.33;2.20;;;;;;;-140.79;100.00;63287.88;5001642;28;20073;-55
2022/04/21 05:32:00;;;;;;;3.13;2.50;;;;;;;-140.79;100.00;63287.88;4997165;28;20038;-53
2022/04/21 05:34:26;;;;;;;3.30;2.35;;;;;;;-140.79;100.00;63287.88;4987492;28;20026;-54
2022/04/21 05:36:52;;;;;;;3.85;2.40;;;;;;;-140.79;100.00;63287.88;5014999;28;20029;-54
2022/04/21 05:39:18;;;;;;;2.65;2.42;;;;;;;-140.79;100.00;63287.88;5025917;28;20033;-54
2022/04/21 05:41:44;;;;;;;3.28;2.60;;;;;;;-140.79;100.00;63287.88;5025375;28;20520;-54
2022/04/21 05:44:11;;;;;;;2.70;2.20;;;;;;;-140.79;100.00;63287.88;5019091;28;20048;-55
2022/04/21 05:46:36;;;;;;;3.15;2.60;;;;;;;-140.79;100.00;63287.88;5021397;28;20473;-54
2022/04/21 05:49:02;;;;;;;3.20;2.65;;;;;;;-140.79;100.00;63287.88;5009717;28;20030;-54
2022/04/21 05:51:28;;;;;;;2.78;2.20;;;;;;;-140.79;100.00;63287.88;4988597;28;20038;-54
2022/04/21 05:53:53;;;;;;;3.20;2.28;;;;;;;-140.79;100.00;63287.88;5007283;28;20022;-54
2022/04/21 05:56:19;;;;;;;2.78;2.42;;;;;;;-140.79;100.00;63287.88;5003157;28;20079;-54
2022/04/21 05:58:44;;;;;;;3.00;2.50;;;;;;;-140.79;100.00;63287.88;5023269;28;20167;-54
2022/04/21 06:01:10;;;;;;;2.70;2.30;;;;;;;-140.79;100.00;63287.88;5025172;28;20116;-54
2022/04/21 06:03:37;;;;;;;2.85;2.45;;;;;;;-140.79;100.00;63287.88;5019928;28;20459;-54
2022/04/21 06:06:03;;;;;;;2.95;2.50;;;;;;;-140.79;100.00;63287.88;5011144;28;20026;-55
2022/04/21 06:08:28;;;;;;;2.58;2.33;;;;;;;-140.79;100.00;63287.88;5003925;28;20091;-54
2022/04/21 06:10:56;;;;;;;3.00;2.42;;;;;;;-140.79;100.00;63287.88;5020079;28;20413;-54
2022/04/21 06:13:25;;;;;;;3.20;2.70;;;;;;;-140.79;100.00;63287.88;5020517;28;20029;-54
2022/04/21 06:15:50;;;;;;;4.22;2.78;;;;;;;-140.79;100.00;63287.88;5015057;28;20030;-54
2022/04/21 06:18:16;;;;;;;3.28;2.97;;;;;;;-140.79;100.00;63287.88;5020308;28;20033;-54
2022/04/21 06:20:42;;;;;;;5.68;2.80;;;;;;;-140.79;100.00;63287.88;5021435;28;20025;-55
2022/04/21 06:23:07;;;;;;;3.00;2.33;;;;;;;-140.79;100.00;63287.88;5025161;28;20033;-54
2022/04/21 06:25:33;;;;;;;3.83;2.88;;;;;;;-140.79;100.00;63287.88;5014621;28;20523;-55
2022/04/21 06:27:59;;;;;;;3.50;2.42;;;;;;;-140.79;100.00;63287.88;5003570;28;20028;-55
2022/04/21 06:30:24;;;;;;;3.22;2.50;;;;;;;-140.79;100.00;63287.88;5024224;28;20053;-55
2022/04/21 06:32:49;;;;;;;3.97;2.90;;;;;;;-140.79;100.00;63287.88;5024161;28;20041;-54
2022/04/21 06:35:15;;;;;;;4.20;2.80;;;;;;;-140.79;100.00;63287.88;5022549;28;20224;-56
2022/04/21 06:37:42;;;;;;;4.07;2.97;;;;;;;-140.79;100.00;63287.88;5020683;28;20409;-54
2022/04/21 06:40:08;;;;;;;2.95;2.50;;;;;;;-140.79;100.00;63287.88;5005677;28;20557;-55
2022/04/21 06:42:35;;;;;;;3.35;2.65;;;;;;;-140.79;100.00;63287.88;5004857;28;20061;-54
2022/04/21 06:50:34;;;;;;;3.22;2.63;;;;;;;-140.79;100.00;63287.88;5007929;28;20106;-54
2022/04/21 06:53:02;;;;;;;;;;;;;;;-140.79;100.00;63287.88;5005293;28;20026;-54
2022/04/21 06:55:28;;;;;;;4.45;2.80;;;;;;;-140.79;100.00;63287.88;5008811;28;19939;-54
2022/04/21 06:57:54;;;;;;;3.15;2.85;;;;;;;-140.79;100.00;63287.88;5006222;28;20497;-54
2022/04/21 07:00:19;;;;;;;3.35;2.50;;;;;;;-140.79;100.00;63287.88;5021478;28;20041;-55
2022/04/21 07:02:45;;;;;;;3.75;2.85;;;;;;;-140.79;100.00;63287.88;5021862;28;20044;-55
2022/04/21 07:05:13;;;;;;;3.90;2.70;;;;;;;-140.79;100.00;63287.88;5016066;28;20026;-54
2022/04/21 07:07:39;;;;;;;3.67;2.90;;;;;;;-140.79;100.00;63287.88;5002277;28;20204;-54
2022/04/21 07:10:05;;;;;;;3.17;2.65;;;;;;;-140.79;100.00;63287.88;5006308;28;20049;-55
2022/04/21 07:12:30;;;;;;;3.45;2.88;;;;;;;-140.79;100.00;63287.88;5004750;28;20473;-54
2022/04/21 07:15:00;;;;;;;3.47;2.67;;;;;;;-140.79;100.00;63287.88;4992342;28;20034;-54
2022/04/21 07:17:25;;;;;;;3.22;2.90;;;;;;;-140.79;100.00;63287.88;5001880;28;20120;-55
2022/04/21 07:19:51;;;;;;;4.35;2.63;;;;;;;-140.79;100.00;63287.88;5004937;28;20084;-55
2022/04/21 07:22:20;;;;;;;3.45;2.67;;;;;;;-140.79;100.00;63287.88;5020317;28;20030;-55
2022/04/21 07:24:49;;;;;;;3.60;2.83;;;;;;;-140.79;100.00;63287.88;5005720;28;20038;-54
2022/04/21 07:27:14;;;;;;;5.18;2.92;;;;;;;-140.79;100.00;63287.88;5020187;28;20029;-54
2022/04/21 07:29:40;;;;;;;3.78;2.85;;;;;;;-140.79;100.00;63287.88;5004625;28;20037;-54
2022/04/21 07:32:06;;;;;;;3.45;2.90;;;;;;;-140.79;100.00;63287.88;5009996;28;20087;-55
2022/04/21 07:34:31;;;;;;;4.35;2.85;;;;;;;-140.79;100.00;63287.88;5002697;28;20089;-54
2022/04/21 07:36:56;;;;;;;3.47;3.00;;;;;;;-140.79;100.00;63287.88;5004813;28;20044;-54
2022/04/21 07:39:22;;;;;;;3.53;2.90;;;;;;;-140.79;100.00;63287.88;4998004;28;20033;-54
2022/04/21 07:41:47;;;;;;;3.20;2.90;;;;;;;-140.79;100.00;63287.88;4993855;28;20025;-54
2022/04/21 07:44:13;;;;;;;3.63;2.90;;;;;;;-140.79;100.00;63287.88;5001433;28;20034;-55
2022/04/21 07:46:38;;;;;;;3.63;2.85;;;;;;;-140.79;100.00;63287.88;5001179;28;20034;-54
2022/04/21 07:51:48;;;;;;;4.40;3.30;;;;;;;-140.79;100.00;63287.88;5001886;28;20741;-54
2022/04/21 07:54:14;;;;;;;3.45;2.88;;;;;;;-140.79;100.00;63287.88;5006386;28;20034;-54
2022/04/21 07:56:39;;;;;;;3.25;2.55;;;;;;;-140.79;100.00;63287.88;5009465;28;20437;-54
2022/04/21 07:59:04;;;;;;;3.67;2.83;;;;;;;-140.79;100.00;63287.88;5010321;28;20105;-54
2022/04/21 08:01:30;;;;;;;3.30;2.75;;;;;;;-140.79;100.00;63287.88;5008171;28;20084;-55
2022/04/21 08:04:01;;;;;;;3.22;2.78;;;;;;;-140.79;100.00;63287.88;5008465;28;20087;-54
2022/04/21 08:06:27;;;;;;;3.70;2.95;;;;;;;-140.79;100.00;63287.88;5008809;28;20050;-55
2022/04/21 08:08:52;;;;;;;3.55;3.20;;;;;;;-140.79;100.00;63287.88;4997457;28;20042;-54
2022/04/21 08:11:18;;;;;;;3.22;2.58;;;;;;;-140.79;100.00;63287.88;5006029;28;20030;-55
2022/04/21 08:13:43;;;;;;;3.88;3.15;;;;;;;-140.79;100.00;63287.88;5008708;28;20029;-53
2022/04/21 08:16:09;;;;;;;4.03;3.08;;;;;;;-140.79;100.00;63287.88;5003681;28;20096;-54
2022/04/21 08:18:34;;;;;;;3.65;3.00;;;;;;;-140.79;100.00;63287.88;4998531;28;20018;-54
2022/04/21 08:20:59;;;;;;;3.17;2.88;;;;;;;-140.79;100.00;63287.88;5009172;28;20516;-55
2022/04/21 08:23:25;;;;;;;3.80;3.35;;;;;;;-140.79;100.00;63287.88;5005844;28;20406;-54
2022/04/21 08:34:05;;;;;;;4.10;3.40;;;;;;;-140.79;100.00;63287.88;5013055;28;20044;-54
2022/04/21 08:36:31;;;;;;;3.70;3.20;;;;;;;-140.79;100.00;63287.88;5009914;28;20029;-55
2022/04/21 08:38:56;;;;;;;3.47;2.90;;;;;;;-140.79;100.00;63287.88;5005882;28;20112;-54
2022/04/21 08:41:24;;;;;;;3.65;3.13;;;;;;;-140.79;100.00;63287.88;5010072;28;20468;-54
2022/04/21 08:43:50;;;;;;;4.45;3.10;;;;;;;-140.79;100.00;63287.88;5002288;28;20100;-54
2022/04/21 08:46:20;;;;;;;4.68;3.20;;;;;;;-140.79;100.00;63287.88;5005725;28;20085;-54
2022/04/21 08:48:47;;;;;;;4.47;3.33;;;;;;;-140.79;100.00;63287.88;5005541;28;20030;-54
2022/04/21 08:51:12;;;;;;;3.55;3.10;;;;;;;-140.79;100.00;63287.88;5004245;28;20501;-54
2022/04/21 08:53:38;;;;;;;4.90;3.15;;;;;;;-140.79;100.00;63287.88;5003757;28;20040;-54
2022/04/21 08:56:03;;;;;;;3.90;3.00;;;;;;;-140.79;100.00;63287.88;5004236;28;20517;-53
2022/04/21 08:58:29;;;;;;;3.75;2.90;;;;;;;-140.79;100.00;63287.88;5007003;28;20520;-54
2022/04/21 09:00:57;;;;;;;3.63;3.22;;;;;;;-140.79;100.00;63287.88;5025619;28;20030;-54
2022/04/21 09:03:23;;;;;;;3.80;3.10;;;;;;;-140.79;100.00;63287.88;5005682;28;20113;-54
2022/04/21 09:05:49;;;;;;;4.20;3.10;;;;;;;-140.79;100.00;63287.88;5001911;28;20030;-54
2022/04/21 09:08:22;;;;;;;3.22;2.90;;;;;;;-140.79;100.00;63287.88;4988629;28;20040;-53
2022/04/21 09:11:00;;;;;;;3.58;3.25;;;;;;;-140.79;100.00;63287.88;5015614;28;20029;-54
2022/04/21 09:13:39;;;;;;;3.75;3.33;;;;;;;-140.79;100.00;63287.88;5010010;28;20565;-54
2022/04/21 09:16:07;;;;;;;4.10;3.25;;;;;;;-140.79;100.00;63287.88;5018854;28;20034;-53
2022/04/21 09:18:39;;;;;;;4.03;2.95;;;;;;;-140.79;100.00;63287.88;5017872;28;20048;-54
2022/04/21 09:21:15;;;;;;;3.90;3.17;;;;;;;-140.79;100.00;63287.88;5012201;28;20030;-54
2022/04/21 09:32:12;;;;;;;4.03;2.90;;;;;;;-140.79;100.00;63287.88;5029599;28;20129;-53
2022/04/21 09:34:38;;;;;;;3.65;2.80;;;;;;;-140.79;100.00;63287.88;5025936;28;20064;-53
2022/04/21 09:37:05;;;;;;;3.80;3.30;;;;;;;-140.79;100.00;63287.88;5047803;28;20403;-54
2022/04/21 09:39:31;;;;;;;3.22;2.92;;;;;;;-140.79;100.00;63287.88;5047104;28;20646;-52
2022/04/21 09:41:57;;;;;;;5.25;2.97;;;;;;;-140.79;100.00;63287.88;5037340;28;20021;-53
2022/04/21 09:47:20;;;;;;;4.80;3.22;;;;;;;-140.79;100.00;63287.88;5029381;28;20105;-56
2022/04/21 09:49:45;;;;;;;3.90;3.50;;;;;;;-140.79;100.00;63287.88;5027938;28;20665;-55
2022/04/21 09:52:12;;;;;;;3.80;3.13;;;;;;;-140.79;100.00;63287.88;5026321;28;20076;-56
2022/04/21 09:54:45;;;;;;;4.38;3.17;;;;;;;-140.79;100.00;63287.88;5028586;28;20111;-56
2022/04/21 09:57:11;;;;;;;4.40;2.90;;;;;;;-140.79;100.00;63287.88;5013757;28;20106;-55
2022/04/21 09:59:37;;;;;;;4.05;2.80;;;;;;;-140.79;100.00;63287.88;5033455;28;20491;-53
2022/04/21 10:02:03;;;;;;;3.80;2.90;;;;;;;-140.79;100.00;63287.88;5029388;28;20029;-57
2022/04/21 10:04:29;;;;;;;4.65;3.33;;;;;;;-140.79;100.00;63287.88;5044354;28;20048;-54
2022/04/21 10:06:55;;;;;;;4.03;3.08;;;;;;;-140.79;100.00;63287.88;5034456;28;20045;-55
2022/04/21 10:09:20;;;;;;;4.28;3.25;;;;;;;-140.79;100.00;63287.88;5015760;28;20032;-56
2022/04/21 10:11:46;;;;;;;3.97;3.28;;;;;;;-140.79;100.00;63287.88;5038949;28;20449;-57
2022/04/21 10:14:12;;;;;;;3.70;2.88;;;;;;;-140.79;100.00;63287.88;5045162;28;20377;-55
2022/04/21 10:16:42;;;;;;;3.80;2.72;;;;;;;-140.79;100.00;63287.88;5047399;28;20083;-55
2022/04/21 10:19:08;;;;;;;5.07;3.10;;;;;;;-140.79;100.00;63287.88;5050253;28;20522;-55
2022/04/21 10:21:48;;;;;;;3.58;2.80;;;;;;;-140.79;100.00;63287.88;5056194;28;20040;-57
2022/04/21 10:24:13;;;;;;;3.60;2.90;;;;;;;-140.79;100.00;63287.88;5033439;28;20040;-57
2022/04/21 10:26:42;;;;;;;3.20;2.85;;;;;;;-140.79;100.00;63287.88;5032321;28;20026;-57
2022/04/21 10:29:14;;;;;;;3.92;3.25;;;;;;;-140.79;100.00;63287.88;5029617;28;20087;-57
2022/04/21 10:32:04;;;;;;;3.88;3.08;;;;;;;-140.79;100.00;63287.88;5030153;28;20056;-57
2022/04/21 10:34:34;;;;;;;3.22;2.83;;;;;;;-140.79;100.00;63287.88;5034154;28;20037;-58
2022/04/21 10:37:20;;;;;;;3.20;2.90;;;;;;;-140.79;100.00;63287.88;5031979;28;20103;-57
2022/04/21 10:40:06;;;;;;;3.70;3.15;;;;;;;-140.79;100.00;63287.88;5034124;28;20048;-57
2022/04/21 10:42:57;;;;;;;4.18;2.70;;;;;;;-140.79;100.00;63287.88;5046039;28;20087;-58
2022/04/21 10:45:32;;;;;;;3.72;2.90;;;;;;;-140.79;100.00;63287.88;5028652;28;20093;-59
2022/04/21 10:48:05;;;;;;;3.72;3.35;;;;;;;-140.79;100.00;63287.88;5039526;28;20021;-56
2022/04/21 10:50:31;;;;;;;3.75;3.08;;;;;;;-140.79;100.00;63287.88;5035897;28;20037;-55
2022/04/21 10:58:34;;;;;;;3.58;3.15;;;;;;;-140.79;100.00;63287.88;5044349;28;20132;-57
2022/04/21 11:01:28;;;;;;;3.85;3.10;;;;;;;-140.79;100.00;63287.88;5038037;28;20037;-57
2022/04/21 11:04:07;;;;;;;3.63;3.08;;;;;;;-140.79;100.00;63287.88;5045962;28;20115;-56
2022/04/21 11:06:40;;;;;;;3.63;3.00;;;;;;;-140.79;100.00;63287.88;5028691;28;20457;-56
2022/04/21 11:09:06;;;;;;;3.45;3.15;;;;;;;-140.79;100.00;63287.88;5045812;28;20033;-56
2022/04/21 11:11:46;;;;;;;4.70;3.22;;;;;;;-140.79;100.00;63287.88;5043141;28;20029;-57
2022/04/21 11:14:12;;;;;;;3.58;3.10;;;;;;;-140.79;100.00;63287.88;5028814;28;20033;-55
2022/04/21 11:16:40;;;;;;;3.40;3.00;;;;;;;-140.79;100.00;63287.88;5028450;28;20453;-56
2022/04/21 11:20:00;;;;;;;4.63;3.30;;;;;;;-140.79;100.00;63287.88;5047927;28;20043;-56
2022/04/21 11:22:39;;;;;;;4.18;2.85;;;;;;;-140.79;100.00;63287.88;4958706;28;20035;-55
2022/04/21 11:25:06;;;;;;;;;;;;;;;-140.79;100.00;63287.88;5019531;28;20632;-56
2022/04/21 11:27:32;;;;;;;4.25;3.40;;;;;;;-140.79;100.00;63287.88;5045675;28;19931;-57
2022/04/21 11:30:06;;;;;;;3.75;3.08;;;;;;;-140.79;100.00;63287.88;5045849;28;20059;-56
2022/04/21 11:32:31;;;;;;;4.43;3.78;;;;;;;-140.79;100.00;63287.88;5039885;28;20040;-56
2022/04/21 11:35:16;;;;;;;3.67;3.00;;;;;;;-140.79;100.00;63287.88;5046199;28;20029;-56
2022/04/21 11:37:46;;;;;;;5.38;3.10;;;;;;;-140.79;100.00;63287.88;5025157;28;20042;-56
2022/04/21 11:40:18;;;;;;;3.97;3.35;;;;;;;-140.79;100.00;63287.88;5047810;28;20032;-56
2022/04/21 11:42:43;;;;;;;3.60;2.90;;;;;;;-140.79;100.00;63287.88;5050556;28;20483;-58
2022/04/21 11:45:08;;;;;;;3.90;3.45;;;;;;;-140.79;100.00;63287.88;5046262;28;20037;-56
2022/04/21 11:47:34;;;;;;;4.18;3.17;;;;;;;-140.79;100.00;63287.88;5046341;28;20036;-59
2022/04/21 11:49:59;;;;;;;3.70;2.97;;;;;;;-140.79;100.00;63287.88;5036113;28;20033;-57
2022/04/21 11:52:30;;;;;;;3.70;3.28;;;;;;;-140.79;100.00;63287.88;5033912;28;20044;-59
2022/04/21 11:55:02;;;;;;;3.53;2.90;;;;;;;-140.79;100.00;63287.88;5013364;28;20060;-57
2022/04/21 11:57:41;;;;;;;3.60;3.30;;;;;;;-140.79;100.00;63287.88;5035195;28;20533;-57
2022/04/21 12:00:07;;;;;;;4.53;3.42;;;;;;;-140.79;100.00;63287.88;5032027;28;20098;-58
2022/04/21 12:08:01;;;;;;;3.65;3.05;;;;;;;-140.79;100.00;63287.88;5027790;28;20529;-59
2022/04/21 12:10:26;;;;;;;3.65;3.35;;;;;;;-140.79;100.00;63287.88;5031647;28;20018;-58